Time;durP1;ratioP1;P1;durP2;ratioP2;P2;SDS_P1;SDS_P2;PMS_P1;PMS_P2;Temp;Humidity;BMP_temperature;BMP_pressure;BME280_temperature;BME280_humidity;BME280_pressure;Samples;Min_cycle;Max_cycle;Signal;HPM_P1;HPM_P2
2022/03/30 00:01:53;;;;;;;20.90;16.90;;;11.40;1.00;11.90;99410.00;;;;5012263;28;20454;-81
2022/03/30 00:04:22;;;;;;;19.90;16.30;;;11.60;1.00;11.80;99397.00;;;;5011914;28;20438;-80
2022/03/30 00:06:50;;;;;;;21.37;17.10;;;11.60;1.00;11.80;99397.00;;;;5013485;28;21062;-78
2022/03/30 00:09:19;;;;;;;21.60;16.80;;;11.60;1.00;11.90;99391.00;;;;5009264;28;20606;-81
2022/03/30 00:11:47;;;;;;;30.00;19.83;;;11.60;1.00;11.70;99394.00;;;;5001722;28;20465;-81
2022/03/30 00:14:15;;;;;;;21.93;18.50;;;11.60;1.00;11.80;99380.00;;;;4998155;28;20468;-81
2022/03/30 00:16:44;;;;;;;24.07;19.63;;;11.50;1.00;11.70;99390.00;;;;5003891;28;20463;-81
2022/03/30 00:19:13;;;;;;;24.13;18.83;;;11.60;1.00;11.80;99382.00;;;;4999782;28;20505;-80
2022/03/30 00:21:42;;;;;;;25.73;17.97;;;11.50;1.00;11.80;99386.00;;;;5002223;28;20952;-78
2022/03/30 00:24:10;;;;;;;24.77;20.07;;;11.60;1.00;11.80;99386.00;;;;4995373;28;20466;-81
2022/03/30 00:26:38;;;;;;;24.57;18.40;;;11.60;1.00;11.70;99388.00;;;;4989314;28;20481;-79
2022/03/30 00:29:07;;;;;;;24.37;18.77;;;11.80;1.00;11.70;99385.00;;;;4986536;28;20477;-80
2022/03/30 00:31:35;;;;;;;26.47;17.63;;;11.50;1.00;11.60;99356.00;;;;4997126;28;20461;-79
2022/03/30 00:34:04;;;;;;;25.73;18.93;;;11.40;1.00;11.60;99370.00;;;;4991240;28;20523;-78
2022/03/30 00:36:33;;;;;;;26.30;19.23;;;11.40;1.00;11.70;99377.00;;;;4989851;28;20477;-79
2022/03/30 00:39:02;;;;;;;24.83;20.43;;;11.50;1.00;11.70;99378.00;;;;4993380;28;21290;-80
2022/03/30 00:41:30;;;;;;;23.40;18.93;;;11.40;1.00;11.60;99348.00;;;;4993515;28;20871;-79
2022/03/30 00:43:58;;;;;;;27.13;19.63;;;11.30;1.00;11.60;99358.00;;;;4991349;28;20455;-79
2022/03/30 00:46:27;;;;;;;28.03;19.70;;;11.30;1.00;11.50;99365.00;;;;4996457;28;20474;-79
2022/03/30 00:48:55;;;;;;;25.33;18.67;;;11.20;1.00;11.50;99369.00;;;;4991974;28;20486;-79
2022/03/30 00:51:23;;;;;;;26.43;18.73;;;11.20;1.00;11.40;99359.00;;;;4991196;28;20471;-79
2022/03/30 00:53:53;;;;;;;27.57;20.30;;;11.10;1.00;11.30;99351.00;;;;4992249;28;20482;-79
2022/03/30 00:56:21;;;;;;;26.80;19.67;;;11.10;1.00;11.30;99352.00;;;;5006449;28;20519;-79
2022/03/30 00:58:50;;;;;;;27.30;19.90;;;11.10;1.00;11.30;99356.00;;;;5011578;28;20465;-79
2022/03/30 01:01:19;;;;;;;26.00;20.83;;;11.00;1.00;11.10;99360.00;;;;5002822;28;20473;-78
2022/03/30 01:03:48;;;;;;;26.90;21.37;;;11.10;1.00;11.20;99349.00;;;;4993563;28;20458;-79
2022/03/30 01:06:16;;;;;;;29.40;21.10;;;10.90;1.00;11.30;99350.00;;;;4998016;28;20485;-78
2022/03/30 01:08:46;;;;;;;26.90;21.40;;;11.10;1.00;11.30;99355.00;;;;5005807;28;20481;-79
2022/03/30 01:11:16;;;;;;;29.03;20.37;;;11.00;1.00;11.30;99346.00;;;;5007103;28;20486;-80
2022/03/30 01:13:45;;;;;;;25.90;20.40;;;11.00;1.00;11.20;99351.00;;;;5005425;28;20442;-80
2022/03/30 01:16:33;;;;;;;26.83;21.63;;;10.90;1.00;11.30;99349.00;;;;5008003;28;20482;-78
2022/03/30 01:19:06;;;;;;;29.60;21.70;;;11.00;1.00;11.20;99350.00;;;;5016707;28;20448;-78
2022/03/30 01:21:37;;;;;;;27.40;18.50;;;11.00;1.00;11.30;99343.00;;;;5009224;28;20548;-79
2022/03/30 01:24:08;;;;;;;28.17;21.63;;;11.10;1.00;11.30;99323.00;;;;4999975;28;20455;-78
2022/03/30 01:26:37;;;;;;;29.23;21.30;;;11.00;1.00;11.20;99341.00;;;;4996920;28;20564;-79
2022/03/30 01:32:25;;;;;;;26.97;20.40;;;11.00;1.00;11.20;99326.00;;;;4999187;28;20484;-80
2022/03/30 01:34:43;;;;;;;27.37;20.90;;;11.00;1.00;11.10;99305.00;;;;5003355;28;20465;-78
2022/03/30 01:37:14;;;;;;;27.27;19.57;;;10.90;1.00;11.20;99319.00;;;;5003284;28;20465;-80
2022/03/30 01:39:43;;;;;;;26.97;20.60;;;10.90;1.00;11.10;99309.00;;;;5003408;28;20449;-80
2022/03/30 01:42:11;;;;;;;31.30;20.27;;;10.90;1.00;11.10;99319.00;;;;5002063;28;20454;-80
2022/03/30 01:44:40;;;;;;;26.60;21.17;;;10.90;1.00;11.20;99314.00;;;;5020628;28;20470;-80
2022/03/30 01:47:10;;;;;;;29.73;21.33;;;11.00;1.00;11.20;99296.00;;;;4998919;28;20457;-79
2022/03/30 01:49:38;;;;;;;28.80;22.17;;;11.00;1.00;11.10;99306.00;;;;5023275;28;20476;-80
2022/03/30 01:52:08;;;;;;;29.80;21.30;;;10.90;1.00;11.20;99283.00;;;;5029669;28;20904;-78
2022/03/30 01:54:41;;;;;;;30.63;22.10;;;11.00;1.00;11.30;99285.00;;;;5033096;28;20444;-78
2022/03/30 01:57:12;;;;;;;29.47;21.80;;;11.00;1.00;11.10;99286.00;;;;5030665;28;20447;-80
2022/03/30 01:59:41;;;;;;;28.70;22.40;;;10.90;1.00;11.10;99281.00;;;;5026662;28;20438;-81
2022/03/30 02:02:11;;;;;;;26.23;19.20;;;10.90;1.00;11.00;99277.00;;;;5013766;28;20481;-79
2022/03/30 02:04:40;;;;;;;33.00;22.40;;;10.80;1.00;11.00;99272.00;;;;5001680;28;20569;-80
2022/03/30 02:07:10;;;;;;;31.27;22.17;;;10.80;1.00;11.00;99261.00;;;;5001260;28;20837;-80
2022/03/30 02:09:40;;;;;;;27.60;20.87;;;10.70;1.00;11.00;99278.00;;;;5001883;28;20557;-80
2022/03/30 02:12:09;;;;;;;33.23;21.40;;;10.70;1.00;10.90;99280.00;;;;5002810;28;20487;-80
2022/03/30 02:14:37;;;;;;;27.80;22.60;;;10.70;1.00;10.90;99275.00;;;;5002783;28;20471;-80
2022/03/30 02:17:06;;;;;;;28.20;20.60;;;10.70;1.00;10.90;99272.00;;;;5002059;28;20481;-80
2022/03/30 02:19:34;;;;;;;30.57;22.20;;;10.70;1.00;11.00;99282.00;;;;5004863;28;20484;-80
2022/03/30 02:22:03;;;;;;;28.90;23.00;;;10.70;1.00;10.90;99271.00;;;;5001772;28;20450;-80
2022/03/30 02:24:32;;;;;;;34.77;24.60;;;10.70;1.00;10.80;99279.00;;;;5010175;28;20489;-80
2022/03/30 02:27:02;;;;;;;30.33;22.10;;;10.60;1.00;10.90;99282.00;;;;5011675;28;20450;-79
2022/03/30 02:29:30;;;;;;;27.83;22.90;;;10.70;1.00;10.90;99263.00;;;;5006476;28;20481;-79
2022/03/30 02:31:59;;;;;;;29.13;20.63;;;10.70;1.00;10.90;99258.00;;;;5012654;28;20542;-80
2022/03/30 02:34:28;;;;;;;30.87;21.73;;;10.70;1.00;10.90;99258.00;;;;5021925;28;20457;-79
2022/03/30 02:36:56;;;;;;;31.47;22.43;;;10.60;1.00;10.80;99266.00;;;;5023082;28;20453;-79
2022/03/30 02:39:24;;;;;;;29.43;23.60;;;10.60;1.00;10.80;99259.00;;;;5015180;28;20498;-79
2022/03/30 02:41:55;;;;;;;30.13;21.97;;;10.50;1.00;10.90;99255.00;;;;5017801;28;20449;-78
2022/03/30 02:44:25;;;;;;;32.17;25.10;;;10.60;1.00;10.80;99264.00;;;;5024055;28;20458;-78
2022/03/30 02:46:53;;;;;;;31.90;23.40;;;10.50;1.00;10.70;99271.00;;;;5008861;28;20487;-79
2022/03/30 02:49:22;;;;;;;35.40;24.07;;;10.50;1.00;10.50;99281.00;;;;5003223;28;20509;-78
2022/03/30 02:51:50;;;;;;;33.93;24.13;;;10.40;1.00;10.40;99264.00;;;;5002645;28;20461;-79
2022/03/30 02:54:18;;;;;;;33.07;24.97;;;10.30;1.00;10.40;99279.00;;;;5004595;28;20462;-79
2022/03/30 02:56:46;;;;;;;31.93;23.97;;;10.20;1.00;10.20;99259.00;;;;5001596;28;20453;-78
2022/03/30 02:59:15;;;;;;;31.40;24.30;;;10.10;1.00;10.00;99266.00;;;;5001432;28;20458;-78
2022/03/30 03:01:45;;;;;;;33.53;25.67;;;9.90;1.00;10.00;99264.00;;;;4997699;28;20462;-78
2022/03/30 03:04:13;;;;;;;33.20;24.03;;;9.90;1.00;9.90;99252.00;;;;5001563;28;20460;-79
2022/03/30 03:06:42;;;;;;;35.30;25.17;;;9.80;1.00;9.90;99249.00;;;;5000756;28;21493;-77
2022/03/30 03:09:11;;;;;;;32.57;25.73;;;9.80;1.00;9.90;99234.00;;;;5002681;28;20458;-77
2022/03/30 03:11:39;;;;;;;32.03;25.10;;;9.80;1.00;10.00;99252.00;;;;5016955;28;20505;-77
2022/03/30 03:14:09;;;;;;;32.17;24.23;;;9.80;1.00;9.90;99256.00;;;;5016589;28;20484;-77
2022/03/30 03:16:37;;;;;;;33.93;25.33;;;9.80;1.00;9.90;99264.00;;;;5014555;28;20470;-78
2022/03/30 03:19:07;;;;;;;35.27;25.07;;;9.80;1.00;9.80;99257.00;;;;5002755;28;21047;-78
2022/03/30 03:21:35;;;;;;;33.50;25.10;;;9.70;1.00;9.90;99241.00;;;;5007640;28;20452;-78
2022/03/30 03:24:04;;;;;;;35.70;25.83;;;9.70;1.00;9.90;99246.00;;;;5006219;28;20495;-79
2022/03/30 03:26:32;;;;;;;32.00;23.50;;;9.70;1.00;10.00;99255.00;;;;5010589;28;20836;-77
2022/03/30 03:29:02;;;;;;;33.13;26.00;;;9.80;1.00;10.00;99239.00;;;;5005948;28;20530;-79
2022/03/30 03:31:30;;;;;;;34.37;26.03;;;9.70;1.00;10.00;99249.00;;;;5011769;28;20473;-79
2022/03/30 03:33:58;;;;;;;33.07;25.13;;;9.80;1.00;10.00;99253.00;;;;5010062;28;20458;-79
2022/03/30 03:36:28;;;;;;;34.73;26.53;;;9.80;1.00;10.00;99249.00;;;;5009126;28;20510;-78
2022/03/30 03:38:56;;;;;;;34.93;27.00;;;10.00;1.00;10.00;99243.00;;;;4993053;28;20459;-78
2022/03/30 03:41:24;;;;;;;36.57;27.00;;;9.70;1.00;9.90;99231.00;;;;5002552;28;20466;-78
2022/03/30 03:43:53;;;;;;;38.40;27.10;;;9.70;1.00;9.90;99214.00;;;;5016809;28;20450;-77
2022/03/30 03:46:21;;;;;;;36.23;27.60;;;9.60;1.00;9.80;99214.00;;;;5008340;28;20681;-79
2022/03/30 03:48:53;;;;;;;34.37;27.30;;;9.60;1.00;9.70;99214.00;;;;5010735;28;20548;-77
2022/03/30 03:51:22;;;;;;;33.97;27.20;;;9.50;1.00;9.70;99214.00;;;;5009133;28;20612;-78
2022/03/30 03:53:51;;;;;;;38.27;28.40;;;9.50;1.00;9.70;99196.00;;;;5008196;28;20450;-78
2022/03/30 03:56:21;;;;;;;38.70;27.80;;;9.50;1.00;9.60;99200.00;;;;5016718;28;20482;-77
2022/03/30 03:58:49;;;;;;;37.00;28.80;;;9.40;1.00;9.60;99216.00;;;;5015951;28;20461;-79
2022/03/30 04:01:18;;;;;;;35.57;26.03;;;9.30;1.00;9.40;99212.00;;;;5008995;28;20473;-79
2022/03/30 04:03:46;;;;;;;40.60;30.60;;;9.20;1.00;9.40;99216.00;;;;5006715;28;20459;-79
2022/03/30 04:06:15;;;;;;;39.57;29.43;;;9.20;1.00;9.40;99218.00;;;;4994860;28;20858;-78
2022/03/30 04:08:43;;;;;;;40.43;31.40;;;9.20;1.00;9.30;99213.00;;;;4991163;28;21038;-78
2022/03/30 04:11:13;;;;;;;39.63;28.23;;;9.10;1.00;9.30;99211.00;;;;4994052;28;20478;-78
2022/03/30 04:13:42;;;;;;;37.30;26.20;;;9.10;1.00;9.10;99206.00;;;;4992771;28;20451;-79
2022/03/30 04:16:10;;;;;;;40.87;31.27;;;8.90;1.00;9.00;99216.00;;;;4993873;28;20482;-80
2022/03/30 04:18:38;;;;;;;44.63;32.07;;;8.80;1.00;8.90;99205.00;;;;4996978;28;20457;-80
2022/03/30 04:21:06;;;;;;;43.93;28.43;;;8.70;1.00;8.80;99197.00;;;;4997189;28;20976;-80
2022/03/30 04:23:35;;;;;;;46.30;30.90;;;8.60;1.00;8.80;99207.00;;;;4997719;28;20454;-80
2022/03/30 04:26:03;;;;;;;41.60;31.50;;;8.60;1.00;8.70;99208.00;;;;5000547;28;20482;-79
2022/03/30 04:28:34;;;;;;;46.83;33.07;;;8.50;1.00;8.70;99205.00;;;;5001059;28;20427;-79
2022/03/30 04:31:02;;;;;;;46.73;33.10;;;8.40;1.00;8.70;99193.00;;;;5024563;28;20504;-80
2022/03/30 04:33:30;;;;;;;47.63;33.47;;;8.50;1.00;8.70;99197.00;;;;5019786;28;20504;-80
2022/03/30 04:35:58;;;;;;;45.73;32.60;;;8.50;1.00;8.60;99196.00;;;;5024614;28;20533;-79
2022/03/30 04:38:27;;;;;;;45.40;33.77;;;8.40;1.00;8.60;99189.00;;;;5020737;28;20477;-79
2022/03/30 04:40:55;;;;;;;40.43;30.63;;;8.60;1.00;8.50;99204.00;;;;5012519;28;20477;-80
2022/03/30 04:43:23;;;;;;;45.10;33.33;;;8.30;1.00;8.50;99198.00;;;;5008390;28;20452;-80
2022/03/30 04:45:54;;;;;;;46.70;35.20;;;8.30;1.00;8.50;99191.00;;;;5006584;28;20477;-79
2022/03/30 04:48:23;;;;;;;45.07;32.07;;;8.30;1.00;8.50;99187.00;;;;5005093;28;20458;-79
2022/03/30 04:50:51;;;;;;;41.57;32.10;;;8.30;1.00;8.40;99191.00;;;;5000660;28;20490;-79
2022/03/30 04:53:20;;;;;;;48.47;33.23;;;8.20;1.00;8.40;99181.00;;;;4995991;28;20469;-79
2022/03/30 04:55:48;;;;;;;38.47;29.30;;;8.20;1.00;8.40;99188.00;;;;4995684;28;20482;-79
2022/03/30 04:58:17;;;;;;;46.57;34.03;;;8.20;1.00;8.40;99193.00;;;;4997598;28;21479;-80
2022/03/30 05:00:45;;;;;;;47.83;34.47;;;8.20;1.00;8.40;99177.00;;;;4995014;28;20488;-78
2022/03/30 05:03:15;;;;;;;44.50;30.63;;;8.20;1.00;8.40;99178.00;;;;4995333;28;20897;-78
2022/03/30 05:05:44;;;;;;;46.87;34.17;;;8.20;1.00;8.40;99179.00;;;;4994027;28;21067;-79
2022/03/30 05:08:12;;;;;;;45.23;33.53;;;8.20;1.00;8.40;99154.00;;;;4994205;28;20454;-79
2022/03/30 05:10:40;;;;;;;53.83;35.77;;;8.20;1.00;8.30;99182.00;;;;4992877;28;20486;-79
2022/03/30 05:13:09;;;;;;;44.70;31.97;;;8.10;1.00;8.40;99190.00;;;;4994299;28;20466;-78
2022/03/30 05:15:37;;;;;;;47.67;34.53;;;8.20;1.00;8.30;99190.00;;;;4989880;28;20478;-79
2022/03/30 05:18:07;;;;;;;46.77;32.03;;;8.20;1.00;8.30;99197.00;;;;4992008;28;20462;-79
2022/03/30 05:20:37;;;;;;;43.67;35.27;;;8.10;1.00;8.30;99181.00;;;;4995153;28;20450;-78
2022/03/30 05:23:05;;;;;;;46.40;31.03;;;8.10;1.00;8.30;99193.00;;;;4990977;28;20799;-79
2022/03/30 05:25:34;;;;;;;56.40;35.83;;;8.10;1.00;8.30;99197.00;;;;4994344;28;20485;-79
2022/03/30 05:28:03;;;;;;;59.97;38.13;;;8.00;1.00;8.20;99199.00;;;;4994458;28;20533;-80
2022/03/30 05:30:36;;;;;;;60.40;38.70;;;7.90;1.00;8.10;99188.00;;;;4997519;28;20456;-81
2022/03/30 05:33:05;;;;;;;61.23;37.73;;;7.80;1.00;8.00;99194.00;;;;4997038;28;20454;-81
2022/03/30 05:35:33;;;;;;;65.53;42.97;;;7.80;1.00;8.00;99195.00;;;;5002391;28;20478;-81
2022/03/30 05:38:03;;;;;;;63.47;39.63;;;7.80;1.00;8.00;99191.00;;;;5001274;28;20872;-82
2022/03/30 05:40:32;;;;;;;68.80;42.37;;;7.70;1.00;7.90;99195.00;;;;5008063;28;20840;-82
2022/03/30 05:43:01;;;;;;;69.33;42.77;;;7.70;1.00;7.90;99192.00;;;;5002682;28;20478;-83
2022/03/30 05:45:29;;;;;;;66.70;41.47;;;7.60;1.00;7.90;99203.00;;;;5022241;28;20594;-81
2022/03/30 05:47:57;;;;;;;60.93;40.23;;;7.60;1.00;7.90;99220.00;;;;5007981;28;20467;-82
2022/03/30 05:50:26;;;;;;;69.13;39.70;;;7.60;1.00;7.80;99214.00;;;;5016131;28;20825;-82
2022/03/30 05:52:54;;;;;;;63.90;40.53;;;7.60;1.00;7.80;99199.00;;;;5009621;28;20482;-82
2022/03/30 05:55:23;;;;;;;69.50;43.20;;;7.50;1.00;7.80;99196.00;;;;5009078;28;20465;-82
2022/03/30 05:57:52;;;;;;;72.20;39.60;;;7.50;1.00;7.90;99178.00;;;;5010194;28;20466;-83
2022/03/30 06:00:20;;;;;;;64.03;41.03;;;7.60;1.00;7.90;99202.00;;;;5010469;28;20538;-81
2022/03/30 06:02:48;;;;;;;76.23;43.70;;;7.60;1.00;7.90;99207.00;;;;5011592;28;20506;-82
2022/03/30 06:05:17;;;;;;;74.40;45.63;;;7.60;1.00;7.90;99199.00;;;;5013238;28;20505;-82
2022/03/30 06:07:45;;;;;;;74.40;44.20;;;7.70;1.00;7.90;99197.00;;;;5014099;28;20477;-83
2022/03/30 06:10:14;;;;;;;70.37;43.20;;;8.00;1.00;8.00;99195.00;;;;5017591;28;20458;-82
2022/03/30 06:12:44;;;;;;;69.73;41.77;;;7.70;1.00;7.90;68012.00;;;;5017967;28;20455;-81
2022/03/30 06:15:12;;;;;;;67.40;42.50;;;7.90;1.00;8.00;99199.00;;;;5031781;28;20490;-83
2022/03/30 06:17:41;;;;;;;74.93;44.03;;;7.70;1.00;8.00;99201.00;;;;5019541;28;20450;-82
2022/03/30 06:20:11;;;;;;;75.53;44.70;;;7.70;1.00;8.00;99194.00;;;;5021979;28;20510;-81
2022/03/30 06:22:40;;;;;;;76.23;43.50;;;7.70;1.00;8.00;99198.00;;;;5024757;28;20462;-82
2022/03/30 06:25:10;;;;;;;81.50;46.53;;;7.70;1.00;8.10;99210.00;;;;5026381;28;20496;-82
2022/03/30 06:27:39;;;;;;;78.10;42.67;;;7.80;1.00;8.20;99213.00;;;;5018562;28;20462;-82
2022/03/30 06:30:12;;;;;;;88.13;44.10;;;7.90;1.00;8.20;99213.00;;;;5023260;28;20477;-82
2022/03/30 06:32:40;;;;;;;91.63;45.83;;;8.00;1.00;8.20;99218.00;;;;5033009;28;20478;-80
2022/03/30 06:35:12;;;;;;;75.93;41.10;;;8.00;1.00;8.20;99209.00;;;;5036941;28;21034;-80
2022/03/30 06:37:40;;;;;;;83.20;45.40;;;8.00;1.00;8.10;99194.00;;;;5034316;28;20450;-81
2022/03/30 06:40:11;;;;;;;86.50;47.53;;;7.90;1.00;8.10;99215.00;;;;5037843;28;20497;-80
2022/03/30 06:42:39;;;;;;;83.97;46.93;;;7.90;1.00;8.20;99204.00;;;;5021963;28;20447;-80
2022/03/30 06:45:10;;;;;;;79.50;42.33;;;7.90;1.00;8.10;99214.00;;;;5021114;28;20553;-81
2022/03/30 06:47:39;;;;;;;83.33;46.17;;;7.90;1.00;8.10;99207.00;;;;5003422;28;20465;-81
2022/03/30 06:50:09;;;;;;;93.73;48.87;;;7.90;1.00;8.10;99200.00;;;;5002861;28;21139;-81
2022/03/30 06:52:37;;;;;;;80.53;45.77;;;7.90;1.00;8.10;99217.00;;;;5007528;28;20489;-81
2022/03/30 06:55:07;;;;;;;73.10;43.43;;;8.00;1.00;8.10;99215.00;;;;5000180;28;20995;-81
2022/03/30 06:57:35;;;;;;;85.53;45.30;;;7.90;1.00;8.20;99220.00;;;;5000408;28;20462;-80
2022/03/30 07:00:06;;;;;;;87.30;46.77;;;7.80;1.00;8.30;99222.00;;;;4998235;28;20474;-81
2022/03/30 07:02:36;;;;;;;82.30;45.47;;;8.00;1.00;8.20;99215.00;;;;4997510;28;20485;-81
2022/03/30 07:05:05;;;;;;;73.30;45.50;;;8.00;1.00;8.30;99217.00;;;;4997061;28;20477;-80
2022/03/30 07:10:23;;;;;;;86.07;46.27;;;8.30;1.00;8.40;99216.00;;;;4999890;28;20455;-80
2022/03/30 07:12:53;;;;;;;78.50;44.00;;;8.10;1.00;8.40;99217.00;;;;4999745;28;20529;-81
2022/03/30 07:15:22;;;;;;;78.97;44.20;;;8.40;1.00;8.50;99214.00;;;;4996604;28;20503;-80
2022/03/30 07:17:54;;;;;;;78.60;42.80;;;8.50;1.00;8.50;99211.00;;;;5000868;28;20434;-81
2022/03/30 07:20:25;;;;;;;86.63;45.70;;;8.30;1.00;8.60;99214.00;;;;4999125;28;20457;-82
2022/03/30 07:22:54;;;;;;;75.60;45.17;;;8.40;1.00;8.70;99205.00;;;;4994437;28;20455;-80
2022/03/30 07:25:23;;;;;;;66.80;42.53;;;8.50;1.00;8.80;99207.00;;;;4997166;28;20485;-81
2022/03/30 07:27:53;;;;;;;73.60;44.67;;;8.60;1.00;8.90;99205.00;;;;4995410;28;20891;-82
2022/03/30 07:30:24;;;;;;;69.80;40.50;;;8.70;1.00;9.00;99215.00;;;;5011482;28;20454;-82
2022/03/30 07:32:55;;;;;;;70.00;41.90;;;8.70;1.00;9.10;99217.00;;;;5001888;28;20474;-82
2022/03/30 07:35:27;;;;;;;67.43;40.63;;;8.80;1.00;9.10;99208.00;;;;5004220;28;20550;-80
2022/03/30 07:37:57;;;;;;;68.43;42.80;;;8.90;1.00;9.20;99218.00;;;;5001009;28;20479;-80
2022/03/30 07:40:29;;;;;;;66.40;43.43;;;9.00;1.00;9.20;99198.00;;;;5001791;28;20450;-81
2022/03/30 07:43:01;;;;;;;67.20;41.67;;;8.90;1.00;9.30;99205.00;;;;5000797;28;20517;-81
2022/03/30 07:45:29;;;;;;;70.10;41.30;;;9.10;1.00;9.20;99185.00;;;;5002373;28;20466;-82
2022/03/30 07:47:59;;;;;;;59.10;39.93;;;9.10;1.00;9.20;99197.00;;;;5005517;28;20463;-80
2022/03/30 07:50:29;;;;;;;50.77;32.70;;;9.00;1.00;9.20;99204.00;;;;4999307;28;20466;-80
2022/03/30 07:52:58;;;;;;;61.20;38.27;;;8.90;1.00;9.20;99195.00;;;;5003024;28;20477;-81
2022/03/30 07:55:28;;;;;;;56.33;36.70;;;8.90;1.00;9.20;99192.00;;;;5000987;28;20506;-81
2022/03/30 07:57:57;;;;;;;56.57;37.83;;;8.90;1.00;9.30;99194.00;;;;5010913;28;20510;-81
2022/03/30 08:00:26;;;;;;;67.07;41.27;;;9.10;1.00;9.30;99189.00;;;;5004915;28;20513;-82
2022/03/30 08:02:55;;;;;;;66.20;39.10;;;9.00;1.00;9.40;99197.00;;;;5006500;28;20548;-82
2022/03/30 08:05:25;;;;;;;53.60;32.87;;;9.10;1.00;9.30;99186.00;;;;5005650;28;20477;-82
2022/03/30 08:07:53;;;;;;;59.43;37.43;;;9.10;1.00;9.30;99193.00;;;;4998313;28;20478;-81
2022/03/30 08:10:22;;;;;;;54.93;37.90;;;9.10;1.00;9.30;99192.00;;;;4999124;28;21383;-81
2022/03/30 08:12:50;;;;;;;61.60;39.13;;;9.10;1.00;9.40;99193.00;;;;4995153;28;20568;-81
2022/03/30 08:15:19;;;;;;;54.80;35.20;;;9.20;1.00;9.50;99207.00;;;;4998769;28;20516;-81
2022/03/30 08:17:47;;;;;;;56.40;37.57;;;9.20;1.00;9.50;99205.00;;;;5000976;28;20454;-80
2022/03/30 08:22:59;;;;;;;57.00;37.50;;;9.30;1.00;9.70;99194.00;;;;5003253;28;20888;-80
2022/03/30 08:25:28;;;;;;;62.47;38.63;;;9.40;1.00;9.90;99197.00;;;;5006191;28;20512;-82
2022/03/30 08:27:56;;;;;;;53.43;34.73;;;9.70;1.00;10.00;99195.00;;;;5004862;28;20521;-82
2022/03/30 08:30:25;;;;;;;56.07;37.53;;;9.90;1.00;10.00;99202.00;;;;5012035;28;20469;-82
2022/03/30 08:32:54;;;;;;;53.23;33.47;;;9.80;1.00;10.10;99197.00;;;;5017838;28;20482;-82
2022/03/30 08:35:23;;;;;;;49.93;34.40;;;9.90;1.00;10.30;99192.00;;;;5034322;28;20478;-82
2022/03/30 08:37:52;;;;;;;49.10;33.87;;;10.10;1.00;10.50;99197.00;;;;5019833;28;20537;-82
2022/03/30 08:40:23;;;;;;;51.50;34.60;;;10.40;1.00;10.70;99201.00;;;;5017212;28;20473;-83
2022/03/30 08:42:54;;;;;;;49.57;32.20;;;10.50;1.00;10.80;99201.00;;;;5018870;28;20565;-82
2022/03/30 08:45:22;;;;;;;48.40;30.47;;;10.70;1.00;10.90;99203.00;;;;5013223;28;20473;-80
2022/03/30 08:47:51;;;;;;;44.17;31.20;;;10.80;1.00;10.90;99198.00;;;;5012639;28;20477;-83
2022/03/30 08:50:21;;;;;;;37.47;25.67;;;10.80;1.00;10.90;99203.00;;;;5022533;28;20530;-82
2022/03/30 08:52:52;;;;;;;44.13;32.70;;;10.80;1.00;11.00;99194.00;;;;5026205;28;20553;-81
2022/03/30 08:55:22;;;;;;;43.20;30.57;;;10.80;1.00;10.90;99186.00;;;;5014611;28;20494;-80
2022/03/30 08:57:50;;;;;;;42.27;28.90;;;10.80;1.00;11.00;99186.00;;;;5009278;28;20477;-82
2022/03/30 09:00:21;;;;;;;46.50;31.37;;;10.90;1.00;11.20;99187.00;;;;5007276;28;20512;-80
2022/03/30 09:03:00;;;;;;;48.00;30.20;;;11.00;1.00;11.40;99196.00;;;;5003402;28;20465;-82
2022/03/30 09:05:30;;;;;;;47.83;33.67;;;11.20;1.00;11.50;99168.00;;;;5004128;28;20479;-82
2022/03/30 09:08:11;;;;;;;38.77;30.70;;;11.40;1.00;11.30;99192.00;;;;5003518;28;20469;-80
2022/03/30 09:10:45;;;;;;;39.40;30.00;;;11.50;1.00;11.60;99191.00;;;;5002415;28;21006;-82
2022/03/30 09:13:17;;;;;;;40.10;30.40;;;11.40;1.00;11.70;99193.00;;;;5003586;28;20489;-82
2022/03/30 09:15:48;;;;;;;40.90;30.93;;;11.60;1.00;11.80;99176.00;;;;5005338;28;20561;-81
2022/03/30 09:18:18;;;;;;;43.40;30.10;;;11.80;1.00;11.70;99160.00;;;;5000540;28;20458;-81
2022/03/30 09:20:51;;;;;;;41.67;31.90;;;11.80;1.00;11.70;99183.00;;;;5000871;28;20464;-81
2022/03/30 09:23:27;;;;;;;41.60;30.30;;;11.70;1.00;11.70;99184.00;;;;4999662;28;20485;-80
2022/03/30 09:25:58;;;;;;;38.97;30.00;;;11.60;1.00;11.60;99197.00;;;;4998872;28;20484;-81
2022/03/30 09:28:27;;;;;;;43.93;31.23;;;11.60;1.00;11.70;99185.00;;;;4995146;28;20542;-80
2022/03/30 09:30:56;;;;;;;42.23;30.20;;;11.70;1.00;11.80;99186.00;;;;4998707;28;20458;-81
2022/03/30 09:33:26;;;;;;;39.67;28.20;;;11.80;1.00;11.70;99183.00;;;;4992367;28;20467;-79
2022/03/30 09:35:54;;;;;;;38.43;29.17;;;11.70;1.00;11.70;99185.00;;;;4990106;28;20478;-80
2022/03/30 09:38:25;;;;;;;38.00;29.43;;;11.70;1.00;11.70;99178.00;;;;4999529;28;20467;-82
2022/03/30 09:40:59;;;;;;;35.63;27.27;;;11.60;1.00;11.80;99172.00;;;;5003986;28;20947;-79
2022/03/30 09:43:31;;;;;;;34.90;27.20;;;11.70;1.00;11.80;99172.00;;;;4997937;28;20553;-80
2022/03/30 09:46:09;;;;;;;42.63;28.97;;;11.70;1.00;11.90;99168.00;;;;5000272;28;20470;-79
2022/03/30 09:48:44;;;;;;;41.20;27.87;;;11.80;1.00;11.80;99172.00;;;;4996114;28;20450;-80
2022/03/30 09:51:12;;;;;;;37.53;27.87;;;11.70;1.00;11.90;99165.00;;;;4997692;28;20446;-80
2022/03/30 09:53:40;;;;;;;31.87;26.40;;;11.80;1.00;12.00;99165.00;;;;4996242;28;20475;-79
2022/03/30 09:56:16;;;;;;;33.00;25.27;;;11.90;1.00;12.30;99164.00;;;;5003756;28;20469;-78
2022/03/30 09:58:46;;;;;;;37.30;26.93;;;12.10;1.00;12.30;99169.00;;;;5002801;28;20472;-80
2022/03/30 10:01:20;;;;;;;29.20;22.93;;;12.20;1.00;12.20;99165.00;;;;5003963;28;20481;-79
2022/03/30 10:03:53;;;;;;;32.73;24.50;;;12.20;1.00;11.90;99140.00;;;;5007556;28;20536;-80
2022/03/30 10:06:26;;;;;;;29.53;24.20;;;12.00;1.00;11.70;99155.00;;;;5000824;28;20489;-81
2022/03/30 10:08:58;;;;;;;37.07;25.57;;;11.70;1.00;11.80;99153.00;;;;5010731;28;20476;-81
2022/03/30 10:11:31;;;;;;;41.10;26.73;;;11.80;1.00;11.80;99154.00;;;;5013372;28;20462;-81
2022/03/30 10:14:03;;;;;;;30.13;23.10;;;11.80;1.00;11.80;99148.00;;;;5018883;28;20501;-79
2022/03/30 10:16:43;;;;;;;39.27;26.80;;;11.80;1.00;11.70;99129.00;;;;5019658;28;20478;-86
2022/03/30 10:19:13;;;;;;;35.63;25.87;;;11.70;1.00;11.60;99150.00;;;;5025621;28;20445;-86
2022/03/30 10:21:51;;;;;;;31.60;24.63;;;11.60;1.00;11.60;99140.00;;;;5021564;28;20453;-83
2022/03/30 10:24:53;;;;;;;33.17;23.47;;;11.70;1.00;11.40;99151.00;;;;5023542;28;20446;-81
2022/03/30 10:27:33;;;;;;;33.13;25.00;;;11.40;1.00;11.40;99139.00;;;;5019809;28;20442;-78
2022/03/30 10:30:05;;;;;;;33.80;25.20;;;11.30;1.00;11.40;99130.00;;;;5024833;28;20464;-78
2022/03/30 10:32:35;;;;;;;30.17;23.60;;;11.30;1.00;11.40;99134.00;;;;5012080;28;20441;-78
2022/03/30 10:35:10;;;;;;;34.63;25.30;;;11.30;1.00;11.40;99138.00;;;;5021297;28;20497;-78
2022/03/30 10:37:42;;;;;;;34.53;25.37;;;11.30;1.00;11.60;99124.00;;;;5002893;28;20453;-79
2022/03/30 10:40:20;;;;;;;30.50;24.40;;;11.60;1.00;11.80;99124.00;;;;4999620;28;20974;-79
2022/03/30 10:43:11;;;;;;;30.93;23.97;;;11.60;1.00;12.10;99131.00;;;;5002975;28;20462;-80
2022/03/30 10:45:50;;;;;;;29.60;21.70;;;11.80;1.00;12.40;99132.00;;;;5001635;28;20513;-79
2022/03/30 10:48:23;;;;;;;28.43;21.43;;;12.20;1.00;12.40;99130.00;;;;5002489;28;20957;-81
2022/03/30 10:50:55;;;;;;;33.57;24.07;;;12.30;1.00;12.50;99120.00;;;;5001277;28;20441;-80
2022/03/30 10:53:42;;;;;;;30.50;23.87;;;12.40;1.00;12.80;99126.00;;;;5005191;28;20472;-79
2022/03/30 10:56:36;;;;;;;26.00;20.83;;;12.70;1.00;12.80;99112.00;;;;5006891;28;20497;-80
2022/03/30 10:59:15;;;;;;;27.80;20.80;;;12.60;1.00;13.10;99116.00;;;;5002702;28;20462;-76
2022/03/30 11:01:46;;;;;;;26.87;21.17;;;12.90;1.00;13.40;99111.00;;;;5001414;28;20471;-82
2022/03/30 11:04:26;;;;;;;24.93;20.07;;;13.20;1.00;13.50;99096.00;;;;5011239;28;20471;-81
2022/03/30 11:07:40;;;;;;;23.57;19.00;;;13.50;1.00;13.40;99113.00;;;;5007212;28;20466;-79
2022/03/30 11:10:24;;;;;;;23.77;20.90;;;13.50;1.00;13.20;99089.00;;;;5016817;28;20825;-80
2022/03/30 11:13:11;;;;;;;26.67;21.07;;;13.30;1.00;13.10;99094.00;;;;5011566;28;20470;-80
2022/03/30 11:16:12;;;;;;;29.77;20.50;;;13.10;1.00;12.90;99094.00;;;;5020466;28;20590;-78
2022/03/30 11:19:05;;;;;;;24.80;20.97;;;12.80;1.00;13.10;99097.00;;;;5015384;28;20450;-80